WetterOnline ( https://www.wetteronline.ch )

Wetter aktuell Regensburg

Aktuelles Wetter: Regensburg/Oberhub (371m)

6-stündlich | Neueste Meldungen
Ortszeit Temperatur Wetter
Do, 21.11. 19:00 4.5° C bedeckt
Do, 21.11. 13:00 4.9° C bewölkt
Do, 21.11. 7:00 4.1° C bedeckt
Do, 21.11. 1:00 3.8° C Sprühregen
Mi, 20.11. 19:00 3.6° C bedeckt
Mi, 20.11. 13:00 5.7° C bedeckt
Mi, 20.11. 7:00 2.4° C bewölkt
Mi, 20.11. 1:00 3.7° C bedeckt
Ortszeit Temperatur Wetter
Fr, 22.11. 0:30 3.7° C bedeckt
Fr, 22.11. 0:20 3.7° C bedeckt
Fr, 22.11. 0:10 3.8° C bedeckt
Fr, 22.11. 0:00 3.8° C bedeckt
Do, 21.11. 23:50 3.8° C bedeckt
Do, 21.11. 23:40 3.8° C bedeckt
Do, 21.11. 23:30 3.8° C bedeckt
Do, 21.11. 23:00 3.8° C bedeckt
Do, 21.11. 22:30 3.9° C bedeckt
Do, 21.11. 22:00 4.1° C bedeckt
Do, 21.11. 21:30 4.1° C bedeckt
Ortszeit Relative Feuchte Sichtweite
Do, 21.11. 19:00 89% 11 km
Do, 21.11. 13:00 91% 6 km
Do, 21.11. 7:00 97% 3.7 km
Do, 21.11. 1:00 94% 3.2 km
Mi, 20.11. 19:00 91% 8 km
Mi, 20.11. 13:00 80% 26 km
Mi, 20.11. 7:00 96% 8 km
Mi, 20.11. 1:00 89% 40 km
Ortszeit Relative Feuchte Sichtweite
Fr, 22.11. 0:30 94% 6 km
Fr, 22.11. 0:20 94% -
Fr, 22.11. 0:10 94% -
Fr, 22.11. 0:00 93% 6 km
Do, 21.11. 23:50 93% -
Do, 21.11. 23:40 94% -
Do, 21.11. 23:30 95% 6 km
Do, 21.11. 23:00 94% 6 km
Do, 21.11. 22:30 93% 7 km
Do, 21.11. 22:00 92% 8 km
Do, 21.11. 21:30 92% 7 km
Ortszeit Niederschlagsmenge Niederschlagsart
Do, 21.11. 19:00 0.1 l/m2 in 12 Std. Regen
Do, 21.11. 13:00 0.1 l/m2 in 6 Std. Sprühregen
Do, 21.11. 7:00 0.2 l/m2 in 12 Std. Regen
Do, 21.11. 1:00 0.1 l/m2 in 6 Std. Regen
Mi, 20.11. 19:00 0.0 l/m2 in 12 Std. -
Mi, 20.11. 13:00 0.0 l/m2 in 6 Std. -
Mi, 20.11. 7:00 0.0 l/m2 in 12 Std. -
Mi, 20.11. 1:00 0.0 l/m2 in 6 Std. -
Ortszeit Niederschlagsmenge Niederschlagsart
Fr, 22.11. 0:30 0.0 l/m2 in 1 Std. -
Fr, 22.11. 0:20 keine Meldung -
Fr, 22.11. 0:10 keine Meldung -
Fr, 22.11. 0:00 0.0 l/m2 in 1 Std. -
Do, 21.11. 23:50 keine Meldung -
Do, 21.11. 23:40 keine Meldung -
Do, 21.11. 23:30 0.0 l/m2 in 1 Std. -
Do, 21.11. 23:00 0.0 l/m2 in 1 Std. -
Do, 21.11. 22:30 0.0 l/m2 in 1 Std. -
Do, 21.11. 22:00 0.0 l/m2 in 1 Std. -
Do, 21.11. 21:30 0.0 l/m2 in 1 Std. -
Ortszeit Stärke Spitze Richtung
km/h Bft. km/h Grad Sektor
Do, 21.11. 19:00 7 2 14 160° S
Do, 21.11. 13:00 6 1 13 150° SO
Do, 21.11. 7:00 2 1 7 210° SW
Do, 21.11. 1:00 0 0 7 - -
Mi, 20.11. 19:00 4 1 14 190° S
Mi, 20.11. 13:00 6 1 13 330° NW
Mi, 20.11. 7:00 4 1 14 170° S
Mi, 20.11. 1:00 6 1 17 330° NW
Ortszeit Stärke Spitze Richtung
km/h Bft. km/h Grad Sektor
Fr, 22.11. 0:30 7 2 14 150° SO
Fr, 22.11. 0:20 7 2 - 150° SO
Fr, 22.11. 0:10 6 1 - 140° SO
Fr, 22.11. 0:00 4 1 11 150° SO
Do, 21.11. 23:50 4 1 - 150° SO
Do, 21.11. 23:40 6 1 - 140° SO
Do, 21.11. 23:30 6 1 11 200° S
Do, 21.11. 23:00 7 2 14 200° S
Do, 21.11. 22:30 4 1 14 180° S
Do, 21.11. 22:00 9 2 19 140° SO
Do, 21.11. 21:30 7 2 14 180° S
Ortszeit Untergrenze Bedeckung Gattung
total tief tief mittel hoch
Do, 21.11. 19:00 240 m 8/8 8/8 - - -
Do, 21.11. 13:00 180 m 7/8 7/8 - - -
Do, 21.11. 7:00 90 m 8/8 8/8 - - -
Do, 21.11. 1:00 420 m 8/8 8/8 - - -
Mi, 20.11. 19:00 360 m 8/8 8/8 - - -
Mi, 20.11. 13:00 390 m 8/8 8/8 - - -
Mi, 20.11. 7:00 240 m 7/8 7/8 - - -
Mi, 20.11. 1:00 2700 m 8/8 8/8 - - -
Ortszeit Bedeckungsgrad in Achtel und Wolkenuntergrenze
Fr, 22.11. 0:30 8(120m)
Fr, 22.11. 0:20 8(120m)
Fr, 22.11. 0:10 8(120m)
Fr, 22.11. 0:00 8(120m)
Do, 21.11. 23:50 8(120m)
Do, 21.11. 23:40 8(120m)
Do, 21.11. 23:30 8(120m)
Do, 21.11. 23:00 8(120m)
Do, 21.11. 22:30 8(150m)
Do, 21.11. 22:00 8(150m)
Do, 21.11. 21:30 8(180m)
Ortszeit Luftdruck NN (hPa) Tendenz (hPa in 3 Std.)
Do, 21.11. 19:00 1011 + 0,7
Do, 21.11. 13:00 1010 - 1,1
Do, 21.11. 7:00 1012 - 0,2
Do, 21.11. 1:00 1013 - 1,2
Mi, 20.11. 19:00 1015 - 0,4
Mi, 20.11. 13:00 1016 - 1,6
Mi, 20.11. 7:00 1019 - 0,2
Mi, 20.11. 1:00 1019 - 0,4
Ortszeit Luftdruck NN (hPa) Tendenz (hPa in 3 Std.)
Fr, 22.11. 0:30 1012 - 0,2
Fr, 22.11. 0:20 1012 keine Meldung
Fr, 22.11. 0:10 1012 keine Meldung
Fr, 22.11. 0:00 1012 + 0,1
Do, 21.11. 23:50 1012 keine Meldung
Do, 21.11. 23:40 1012 keine Meldung
Do, 21.11. 23:30 1012 + 0,5
Do, 21.11. 23:00 1012 + 0,4
Do, 21.11. 22:30 1012 + 0,4
Do, 21.11. 22:00 1012 + 0,5
Do, 21.11. 21:30 1012 + 0,6
Ortszeit Schneehöhe (cm)
Do, 21.11. 19:00 0
Do, 21.11. 13:00 0
Do, 21.11. 7:00 0
Do, 21.11. 1:00 0
Mi, 20.11. 19:00 0
Mi, 20.11. 13:00 0
Mi, 20.11. 7:00 0
Mi, 20.11. 1:00 0
Ortszeit Schneehöhe (cm)
Fr, 22.11. 0:30 0
Fr, 22.11. 0:20 0
Fr, 22.11. 0:10 0
Fr, 22.11. 0:00 0
Do, 21.11. 23:50 0
Do, 21.11. 23:40 0
Do, 21.11. 23:30 0
Do, 21.11. 23:00 0
Do, 21.11. 22:30 0
Do, 21.11. 22:00 0
Do, 21.11. 21:30 0
Link zu dieser Seite / Seite empfehlen

Das Wetter in ...